Time;durP1;ratioP1;P1;durP2;ratioP2;P2;SDS_P1;SDS_P2;PMS_P1;PMS_P2;Temp;Humidity;BMP_temperature;BMP_pressure;BME280_temperature;BME280_humidity;BME280_pressure;Samples;Min_cycle;Max_cycle;Signal;HPM_P1;HPM_P2
2022/04/27 00:02:17;;;;;;;13.93;5.95;;;;;;;8.99;60.22;100208.34;5071836;28;20064;-67
2022/04/27 00:04:42;;;;;;;8.55;6.93;;;;;;;8.95;60.43;100204.97;5076006;28;20028;-67
2022/04/27 00:07:08;;;;;;;12.65;7.35;;;;;;;8.87;60.17;100201.75;5075242;28;20036;-67
2022/04/27 00:09:34;;;;;;;10.18;5.82;;;;;;;8.85;60.13;100206.22;5075028;28;20037;-68
2022/04/27 00:12:03;;;;;;;11.20;5.82;;;;;;;8.85;60.53;100205.34;5071021;28;20041;-69
2022/04/27 00:14:29;;;;;;;6.68;5.07;;;;;;;8.83;59.89;100197.50;5071482;28;20433;-68
2022/04/27 00:16:56;;;;;;;8.50;5.93;;;;;;;8.79;59.71;100196.78;5071079;28;20496;-70
2022/04/27 00:19:21;;;;;;;10.25;5.75;;;;;;;8.74;60.44;100201.34;5071311;28;20085;-69
2022/04/27 00:21:46;;;;;;;7.97;5.88;;;;;;;8.69;59.77;100200.63;5088353;28;20112;-70
2022/04/27 00:24:11;;;;;;;10.55;6.43;;;;;;;8.64;60.22;100199.94;5092161;28;20532;-68
2022/04/27 00:26:37;;;;;;;8.43;5.97;;;;;;;8.63;60.69;100205.25;5091598;28;20483;-68
2022/04/27 00:29:02;;;;;;;7.82;5.25;;;;;;;8.55;60.46;100197.63;5091545;28;20461;-69
2022/04/27 00:31:28;;;;;;;8.48;4.97;;;;;;;8.50;60.72;100210.06;5090331;28;20031;-68
2022/04/27 00:33:54;;;;;;;8.00;6.03;;;;;;;8.46;61.02;100208.44;5090840;28;20039;-68
2022/04/27 00:36:19;;;;;;;9.07;5.40;;;;;;;8.43;60.99;100204.16;5091334;28;20028;-69
2022/04/27 00:38:44;;;;;;;11.80;6.10;;;;;;;8.40;61.69;100209.50;5091822;28;20441;-69
2022/04/27 00:41:10;;;;;;;8.45;6.40;;;;;;;8.36;60.88;100203.44;5090569;28;20085;-68
2022/04/27 00:43:41;;;;;;;9.77;5.05;;;;;;;8.35;61.74;100211.41;5091031;28;20491;-68
2022/04/27 00:46:07;;;;;;;7.93;5.25;;;;;;;8.31;61.48;100207.16;5091125;28;20046;-69
2022/04/27 00:48:32;;;;;;;9.25;5.97;;;;;;;8.27;60.84;100203.78;5090938;28;20118;-67
2022/04/27 00:51:02;;;;;;;12.57;6.90;;;;;;;8.22;61.24;100205.72;5090819;28;20519;-68
2022/04/27 00:53:27;;;;;;;6.60;4.50;;;;;;;8.18;61.36;100215.44;5090883;28;20122;-68
2022/04/27 00:55:53;;;;;;;10.45;6.05;;;;;;;8.12;61.22;100206.88;5090793;28;20449;-68
2022/04/27 00:58:18;;;;;;;9.85;5.88;;;;;;;8.03;61.93;100200.19;5090998;28;20036;-69
2022/04/27 01:00:43;;;;;;;8.18;5.95;;;;;;;7.98;62.03;100206.50;5080767;28;20032;-68
2022/04/27 01:03:09;;;;;;;7.35;5.88;;;;;;;7.92;62.04;100213.63;5090791;28;20067;-69
2022/04/27 01:05:34;;;;;;;6.85;4.80;;;;;;;7.91;62.70;100205.81;5090512;28;20441;-69
2022/04/27 01:08:00;;;;;;;7.32;5.47;;;;;;;7.85;63.36;100206.88;5091048;28;20079;-69
2022/04/27 01:10:29;;;;;;;14.75;5.93;;;;;;;7.78;64.61;100210.59;5090799;28;20154;-68
2022/04/27 01:12:56;;;;;;;8.23;6.88;;;;;;;7.70;64.89;100217.81;5089907;28;20495;-69
2022/04/27 01:15:36;;;;;;;10.93;6.75;;;;;;;7.55;66.13;100215.69;5090762;28;20036;-68
2022/04/27 01:18:01;;;;;;;12.15;7.78;;;;;;;7.41;66.75;100216.06;5090817;28;20028;-67
2022/04/27 01:20:31;;;;;;;12.20;6.95;;;;;;;7.31;67.28;100215.50;5090415;28;20035;-69
2022/04/27 01:22:57;;;;;;;14.05;7.47;;;;;;;7.20;68.41;100218.41;5089059;28;20055;-68
2022/04/27 01:25:22;;;;;;;15.25;7.63;;;;;;;7.16;68.53;100226.41;5090641;28;20543;-68
2022/04/27 01:27:47;;;;;;;11.45;7.30;;;;;;;7.07;68.73;100223.16;5090578;28;20032;-66
2022/04/27 01:30:13;;;;;;;8.73;6.45;;;;;;;7.01;69.29;100223.31;5089879;28;20064;-69
2022/04/27 01:32:38;;;;;;;12.32;7.45;;;;;;;6.94;69.72;100221.78;5088967;28;20036;-68
2022/04/27 01:35:04;;;;;;;10.38;6.85;;;;;;;6.84;70.25;100225.53;5090765;28;20078;-68
2022/04/27 01:40:13;;;;;;;9.25;7.38;;;;;;;6.72;70.43;100226.75;5090172;28;20043;-68
2022/04/27 01:42:38;;;;;;;12.48;7.28;;;;;;;6.64;70.71;100233.91;5090141;28;20032;-68
2022/04/27 01:45:04;;;;;;;10.40;7.57;;;;;;;6.57;70.26;100233.25;5093902;28;20065;-66
2022/04/27 01:47:29;;;;;;;9.55;7.20;;;;;;;6.53;70.24;100226.34;5093831;28;20039;-66
2022/04/27 01:49:55;;;;;;;9.55;6.93;;;;;;;6.44;70.76;100234.44;5094262;28;20093;-66
2022/04/27 01:55:05;;;;;;;14.68;8.27;;;;;;;6.31;71.45;100228.66;5090430;28;20120;-68
2022/04/27 01:57:30;;;;;;;9.77;7.30;;;;;;;6.30;71.32;100231.28;5090229;28;20087;-69
2022/04/27 01:59:56;;;;;;;12.77;7.25;;;;;;;6.28;71.28;100230.50;5090912;28;20032;-68
2022/04/27 02:02:22;;;;;;;11.18;8.32;;;;;;;6.24;71.88;100232.31;5089414;28;20518;-67
2022/04/27 02:04:47;;;;;;;11.32;8.98;;;;;;;6.16;71.76;100237.72;5089099;28;20525;-69
2022/04/27 02:07:12;;;;;;;11.35;7.85;;;;;;;6.07;72.59;100243.19;5091698;28;20530;-69
2022/04/27 02:09:38;;;;;;;10.13;6.93;;;;;;;6.05;72.28;100249.34;5091742;28;20042;-69
2022/04/27 02:12:06;;;;;;;10.65;8.73;;;;;;;6.00;72.12;100252.91;5089449;28;20040;-69
2022/04/27 02:14:32;;;;;;;15.35;7.47;;;;;;;5.94;72.64;100249.59;5089955;28;20067;-68
2022/04/27 02:16:57;;;;;;;14.85;8.48;;;;;;;5.86;73.19;100251.47;5089024;28;20441;-69
2022/04/27 02:19:23;;;;;;;14.35;10.10;;;;;;;5.80;73.46;100263.81;5090053;28;20052;-69
2022/04/27 02:21:48;;;;;;;12.10;8.75;;;;;;;5.73;73.59;100254.38;5089873;28;20077;-69
2022/04/27 02:24:14;;;;;;;9.75;7.40;;;;;;;5.69;73.59;100260.56;5091487;28;20125;-69
2022/04/27 02:26:41;;;;;;;11.98;7.40;;;;;;;5.69;73.65;100265.81;5093280;28;20036;-68
2022/04/27 02:29:06;;;;;;;11.48;7.53;;;;;;;5.66;73.70;100257.16;5094430;28;20047;-67
2022/04/27 02:31:31;;;;;;;10.50;8.73;;;;;;;5.60;73.87;100264.22;5093997;28;20063;-68
2022/04/27 02:33:57;;;;;;;10.57;7.75;;;;;;;5.55;73.84;100262.63;5093949;28;20039;-67
2022/04/27 02:36:22;;;;;;;15.98;7.75;;;;;;;5.53;74.42;100262.63;5092387;28;20032;-68
2022/04/27 02:38:47;;;;;;;12.25;8.60;;;;;;;5.47;73.81;100269.78;5093812;28;20024;-67
2022/04/27 02:41:13;;;;;;;9.15;6.95;;;;;;;5.41;74.18;100264.66;5092174;28;20024;-66
2022/04/27 02:43:38;;;;;;;11.75;6.75;;;;;;;5.40;74.53;100260.31;5094294;28;20070;-66
2022/04/27 02:46:04;;;;;;;11.45;8.60;;;;;;;5.31;74.61;100261.34;5093907;28;20097;-67
2022/04/27 02:48:29;;;;;;;15.55;8.25;;;;;;;5.31;74.59;100272.66;5092914;28;20101;-66
2022/04/27 02:53:38;;;;;;;14.07;8.23;;;;;;;5.22;74.56;100267.66;5093399;28;20110;-65
2022/04/27 02:56:04;;;;;;;12.85;8.50;;;;;;;5.19;74.74;100272.06;5093167;28;20050;-66
2022/04/27 02:58:29;;;;;;;12.15;7.57;;;;;;;5.15;75.04;100274.75;5092127;28;20035;-67
2022/04/27 03:00:54;;;;;;;9.68;8.55;;;;;;;5.11;74.83;100274.81;5092829;28;20062;-67
2022/04/27 03:03:20;;;;;;;18.83;8.15;;;;;;;5.07;74.49;100276.66;5090553;28;20090;-68
2022/04/27 03:05:45;;;;;;;9.65;7.47;;;;;;;5.04;75.16;100278.44;5089121;28;20067;-68
2022/04/27 03:08:11;;;;;;;10.38;7.47;;;;;;;4.99;75.44;100277.66;5089255;28;20105;-69
2022/04/27 03:10:36;;;;;;;13.05;7.43;;;;;;;4.95;75.54;100285.56;5089347;28;20564;-68
2022/04/27 03:13:02;;;;;;;8.27;7.05;;;;;;;4.94;75.36;100282.97;5088878;28;20033;-69
2022/04/27 03:15:27;;;;;;;13.73;9.27;;;;;;;4.88;75.48;100286.56;5087651;28;20509;-67
2022/04/27 03:20:37;;;;;;;10.15;8.65;;;;;;;4.79;75.55;100288.47;5089356;28;20092;-68
2022/04/27 03:23:02;;;;;;;10.73;8.32;;;;;;;4.76;75.94;100288.53;5089417;28;20036;-68
2022/04/27 03:25:28;;;;;;;10.07;7.32;;;;;;;4.71;76.44;100281.63;5089731;28;20036;-68
2022/04/27 03:27:53;;;;;;;10.48;7.20;;;;;;;4.71;75.88;100289.47;5090943;28;20028;-68
2022/04/27 03:30:19;;;;;;;9.00;7.65;;;;;;;4.71;76.21;100283.38;5091645;28;20028;-69
2022/04/27 03:32:44;;;;;;;11.48;7.90;;;;;;;4.70;75.99;100285.16;5092358;28;20044;-68
2022/04/27 03:35:09;;;;;;;8.75;6.70;;;;;;;4.66;75.86;100291.28;5093659;28;20040;-65
2022/04/27 03:37:35;;;;;;;9.43;7.63;;;;;;;4.67;75.86;100293.00;5093827;28;20446;-67
2022/04/27 03:40:00;;;;;;;14.52;8.38;;;;;;;4.63;75.71;100293.97;5092670;28;20040;-68
2022/04/27 03:42:25;;;;;;;12.27;7.95;;;;;;;4.62;76.26;100294.84;5092088;28;20032;-68
2022/04/27 03:44:51;;;;;;;11.65;8.63;;;;;;;4.58;76.27;100297.53;5090918;28;20028;-69
2022/04/27 03:47:16;;;;;;;9.20;7.82;;;;;;;4.51;76.35;100296.78;5092613;28;20032;-68
2022/04/27 03:49:41;;;;;;;18.67;10.00;;;;;;;4.47;76.23;100298.56;5092648;28;20110;-68
2022/04/27 03:52:07;;;;;;;13.10;9.55;;;;;;;4.43;76.13;100303.84;5092927;28;20132;-69
2022/04/27 03:54:32;;;;;;;9.85;7.82;;;;;;;4.37;76.79;100302.22;5092826;28;20052;-68
2022/04/27 03:56:58;;;;;;;10.52;7.18;;;;;;;4.37;76.46;100298.75;5093341;28;20456;-68
2022/04/27 03:59:24;;;;;;;13.18;9.02;;;;;;;4.28;77.21;100303.22;5092911;28;20032;-68
2022/04/27 04:01:49;;;;;;;11.95;7.95;;;;;;;4.27;77.03;100309.31;5091659;28;20107;-68
2022/04/27 04:04:15;;;;;;;12.50;7.60;;;;;;;4.26;77.21;100314.56;5092302;28;20056;-68
2022/04/27 04:06:40;;;;;;;10.88;8.75;;;;;;;4.23;77.77;100312.88;5093103;28;20118;-68
2022/04/27 04:09:05;;;;;;;10.70;8.93;;;;;;;4.17;77.45;100310.34;5092328;28;20107;-68
2022/04/27 04:11:31;;;;;;;12.05;8.65;;;;;;;4.21;77.45;100313.75;5091592;28;20089;-67
2022/04/27 04:13:56;;;;;;;13.13;10.90;;;;;;;4.18;77.24;100314.66;5092181;28;20040;-67
2022/04/27 04:16:21;;;;;;;11.48;9.82;;;;;;;4.16;77.37;100318.19;5090577;28;20028;-67
2022/04/27 04:18:47;;;;;;;11.55;10.35;;;;;;;4.06;77.36;100318.34;5091894;28;20081;-68
2022/04/27 04:21:12;;;;;;;14.48;10.68;;;;;;;4.04;77.92;100322.72;5089506;28;20032;-68
2022/04/27 04:23:38;;;;;;;14.60;9.65;;;;;;;4.04;77.74;100324.47;5074051;28;20039;-68
2022/04/27 04:28:47;;;;;;;13.85;8.95;;;;;;;4.11;77.55;100325.22;5091312;28;20397;-69
2022/04/27 04:31:14;;;;;;;11.82;9.60;;;;;;;4.12;77.70;100324.34;5091043;28;20036;-67
2022/04/27 04:33:39;;;;;;;12.85;10.00;;;;;;;4.09;77.12;100338.31;5091930;28;20407;-67
2022/04/27 04:36:05;;;;;;;19.45;9.48;;;;;;;4.07;77.21;100332.22;5091743;28;20032;-67
2022/04/27 04:38:30;;;;;;;12.57;8.88;;;;;;;4.08;77.36;100333.94;5090341;28;20106;-68
2022/04/27 04:40:55;;;;;;;19.30;10.40;;;;;;;4.04;77.29;100333.13;5091372;28;20119;-68
2022/04/27 04:43:21;;;;;;;12.07;9.25;;;;;;;4.01;78.24;100340.13;5092034;28;20503;-68
2022/04/27 04:45:46;;;;;;;13.82;8.55;;;;;;;3.98;77.53;100338.44;5092261;28;20123;-69
2022/04/27 04:48:12;;;;;;;12.20;7.82;;;;;;;3.96;78.03;100340.19;5092128;28;20039;-68
2022/04/27 04:50:37;;;;;;;11.82;10.00;;;;;;;3.98;77.36;100348.00;5094067;28;20032;-69
2022/04/27 04:53:04;;;;;;;17.15;10.60;;;;;;;3.96;77.66;100342.78;5092301;28;20042;-66
2022/04/27 04:55:29;;;;;;;12.18;10.68;;;;;;;3.99;78.03;100352.34;5094451;28;20032;-68
2022/04/27 04:57:55;;;;;;;10.88;8.05;;;;;;;4.02;77.76;100354.91;5094147;28;20682;-67
2022/04/27 05:00:20;;;;;;;16.38;10.02;;;;;;;4.11;77.68;100365.25;5093753;28;20035;-69
2022/04/27 05:02:46;;;;;;;13.02;9.73;;;;;;;4.14;77.27;100356.50;5093644;28;20032;-67
2022/04/27 05:05:11;;;;;;;15.75;8.57;;;;;;;4.18;77.54;100360.78;5093133;28;20032;-66
2022/04/27 05:07:36;;;;;;;11.02;8.07;;;;;;;4.29;77.20;100361.50;5093813;28;20089;-66
2022/04/27 05:10:02;;;;;;;15.45;8.85;;;;;;;4.37;76.55;100364.00;5094957;28;20032;-66
2022/04/27 05:12:28;;;;;;;19.90;9.85;;;;;;;4.43;76.37;100369.13;5094024;28;20119;-66
2022/04/27 05:14:53;;;;;;;10.68;8.52;;;;;;;4.49;76.25;100367.28;5093873;28;20107;-66
2022/04/27 05:17:19;;;;;;;24.85;11.38;;;;;;;4.55;76.27;100368.06;5093869;28;20047;-69
2022/04/27 05:19:44;;;;;;;12.88;8.77;;;;;;;4.63;76.59;100367.09;5092019;28;20028;-68
2022/04/27 05:22:10;;;;;;;16.30;9.60;;;;;;;4.72;75.69;100360.84;5090772;28;20610;-69
2022/04/27 05:24:35;;;;;;;14.27;9.93;;;;;;;4.79;75.86;100365.09;5089733;28;20032;-67
2022/04/27 05:27:00;;;;;;;12.23;9.65;;;;;;;4.90;75.52;100371.00;5089932;28;20035;-68
2022/04/27 05:32:12;;;;;;;12.10;9.10;;;;;;;5.08;75.21;100371.56;5090553;28;20035;-68
2022/04/27 05:34:38;;;;;;;23.60;10.57;;;;;;;5.22;74.58;100377.44;5089645;28;20085;-67
2022/04/27 05:37:03;;;;;;;18.23;12.30;;;;;;;5.26;74.21;100378.22;5091416;28;20031;-68
2022/04/27 05:39:29;;;;;;;15.05;11.35;;;;;;;5.27;74.82;100378.22;5091192;28;20456;-67
2022/04/27 05:41:54;;;;;;;14.43;11.25;;;;;;;5.36;74.63;100378.00;5089736;28;20028;-69
2022/04/27 05:44:22;;;;;;;20.30;12.45;;;;;;;5.50;73.94;100392.59;5090283;28;20028;-68
2022/04/27 05:46:54;;;;;;;24.70;14.48;;;;;;;5.65;74.26;100397.53;5090711;28;20032;-69
2022/04/27 05:49:20;;;;;;;15.02;11.35;;;;;;;5.77;74.07;100393.84;5090426;28;20047;-68
2022/04/27 05:51:46;;;;;;;19.20;12.10;;;;;;;5.90;73.83;100400.53;5089965;28;20040;-67
2022/04/27 05:54:13;;;;;;;14.80;11.35;;;;;;;6.01;73.28;100389.91;5091393;28;20177;-66
2022/04/27 05:56:40;;;;;;;14.73;11.27;;;;;;;6.07;73.15;100397.59;5090790;28;20036;-67
2022/04/27 05:59:06;;;;;;;15.10;10.77;;;;;;;6.16;73.27;100400.03;5090431;28;20111;-67
2022/04/27 06:01:31;;;;;;;12.20;10.73;;;;;;;6.31;72.61;100398.00;5089621;28;20043;-68
2022/04/27 06:03:56;;;;;;;12.30;9.52;;;;;;;6.48;72.13;100405.47;5090074;28;20024;-68
2022/04/27 06:06:23;;;;;;;13.35;10.52;;;;;;;6.60;71.75;100402.56;5088676;28;20032;-68
2022/04/27 06:08:49;;;;;;;12.88;9.25;;;;;;;6.76;71.58;100408.31;5090750;28;20463;-69
2022/04/27 06:11:16;;;;;;;13.45;10.32;;;;;;;6.95;70.20;100412.22;5090000;28;20047;-67
2022/04/27 06:13:42;;;;;;;14.00;10.85;;;;;;;7.11;69.82;100412.69;5093197;28;20064;-67
2022/04/27 06:16:07;;;;;;;16.10;10.55;;;;;;;7.24;69.27;100410.63;5093334;28;20051;-67
2022/04/27 06:18:33;;;;;;;15.55;9.82;;;;;;;7.37;69.18;100413.81;5093744;28;20032;-66
2022/04/27 06:20:58;;;;;;;19.25;12.32;;;;;;;7.53;68.24;100407.22;5093330;28;20556;-67
2022/04/27 06:23:24;;;;;;;21.83;12.18;;;;;;;7.83;67.36;100405.56;5092401;28;20452;-68
2022/04/27 06:25:49;;;;;;;15.27;11.57;;;;;;;8.18;65.84;100409.78;5090197;28;20051;-70
2022/04/27 06:28:18;;;;;;;20.52;12.75;;;;;;;8.41;65.00;100416.16;5088948;28;20144;-69
2022/04/27 06:30:43;;;;;;;18.02;11.00;;;;;;;8.73;64.41;100406.41;5089881;28;20036;-69
2022/04/27 06:33:09;;;;;;;18.17;11.43;;;;;;;9.00;63.79;100412.56;5090399;28;20115;-70
2022/04/27 06:35:34;;;;;;;14.90;10.30;;;;;;;9.36;62.81;100404.34;5092609;28;20035;-69
2022/04/27 06:38:00;;;;;;;19.42;10.90;;;;;;;9.61;62.01;100414.88;5091751;28;20043;-69
2022/04/27 06:40:25;;;;;;;15.52;11.00;;;;;;;9.85;61.45;100411.38;5089032;28;20032;-69
2022/04/27 06:42:51;;;;;;;17.30;12.63;;;;;;;10.00;60.55;100417.00;5089513;28;20055;-69
2022/04/27 06:45:17;;;;;;;13.55;11.30;;;;;;;10.30;59.72;100418.50;5089367;28;20032;-69
2022/04/27 06:47:42;;;;;;;20.42;13.35;;;;;;;10.41;59.28;100422.50;5089460;28;20032;-70
2022/04/27 06:50:11;;;;;;;19.92;14.10;;;;;;;10.32;58.65;100431.66;5089078;28;20028;-68
2022/04/27 06:52:41;;;;;;;16.00;11.85;;;;;;;10.63;58.65;100427.81;5088749;28;20119;-68
2022/04/27 06:55:08;;;;;;;16.95;12.40;;;;;;;11.04;57.27;100436.72;5089473;28;20028;-69
2022/04/27 06:57:34;;;;;;;16.45;13.25;;;;;;;11.20;56.49;100431.69;5089440;28;20562;-68
2022/04/27 06:59:59;;;;;;;17.85;11.43;;;;;;;11.42;56.59;100428.13;5088892;28;20052;-68
2022/04/27 07:02:25;;;;;;;27.60;13.60;;;;;;;11.61;54.98;100437.84;5090186;28;20036;-68
2022/04/27 07:04:55;;;;;;;16.38;12.23;;;;;;;11.74;58.43;100435.53;5092324;28;20040;-57
2022/04/27 07:07:21;;;;;;;23.65;12.13;;;;;;;11.50;55.29;100433.97;5074300;28;20098;-53
2022/04/27 07:09:47;;;;;;;17.05;11.80;;;;;;;11.60;55.27;100435.28;5086892;28;20318;-54
2022/04/27 07:12:13;;;;;;;21.58;12.38;;;;;;;11.64;54.74;100442.16;5088742;28;20048;-69
2022/04/27 07:14:39;;;;;;;28.40;12.18;;;;;;;12.06;54.10;100441.22;5091146;28;20062;-69
2022/04/27 07:17:04;;;;;;;21.60;11.57;;;;;;;12.10;53.56;100437.50;5088649;28;20086;-68
2022/04/27 07:19:29;;;;;;;14.10;11.60;;;;;;;12.08;53.58;100436.69;5089155;28;20036;-68
2022/04/27 07:21:55;;;;;;;22.80;11.80;;;;;;;12.09;53.90;100437.59;5087435;28;20099;-69
2022/04/27 07:24:20;;;;;;;16.05;11.30;;;;;;;12.36;53.30;100443.41;5088043;28;20028;-69
2022/04/27 07:26:46;;;;;;;17.48;11.50;;;;;;;12.60;52.41;100439.63;5088111;28;20024;-67
2022/04/27 07:29:11;;;;;;;16.08;11.20;;;;;;;12.79;52.35;100438.72;5089050;28;20043;-70
2022/04/27 07:31:37;;;;;;;18.10;10.32;;;;;;;12.84;51.47;100437.56;5087396;28;20043;-69
2022/04/27 07:34:02;;;;;;;14.32;10.10;;;;;;;12.93;51.35;100440.72;5088320;28;20047;-70
2022/04/27 07:36:28;;;;;;;16.00;10.65;;;;;;;13.06;51.45;100436.53;5088302;28;20100;-69
2022/04/27 07:38:53;;;;;;;22.17;13.10;;;;;;;12.82;50.62;100443.84;5087934;28;20054;-70
2022/04/27 07:41:19;;;;;;;22.35;12.23;;;;;;;13.11;51.31;100440.66;5085899;28;20052;-68
2022/04/27 07:43:44;;;;;;;22.48;12.68;;;;;;;13.31;50.28;100446.78;5090180;28;20665;-68
2022/04/27 07:46:11;;;;;;;16.90;9.40;;;;;;;13.82;49.04;100450.38;5091140;28;20095;-68
2022/04/27 07:48:37;;;;;;;18.17;12.20;;;;;;;13.87;48.15;100445.69;5087856;28;20043;-69
2022/04/27 07:51:05;;;;;;;17.02;12.40;;;;;;;14.02;47.61;100449.31;5087635;28;20879;-69
2022/04/27 07:53:30;;;;;;;17.38;11.63;;;;;;;14.10;47.71;100452.44;5087400;28;20094;-70
2022/04/27 07:55:56;;;;;;;24.23;11.60;;;;;;;13.99;47.77;100451.28;5086345;28;20511;-70
2022/04/27 07:58:21;;;;;;;21.38;11.50;;;;;;;14.28;46.83;100458.56;5087880;28;20503;-68
2022/04/27 08:00:47;;;;;;;22.15;10.60;;;;;;;14.84;45.72;100453.75;5089481;28;20111;-68
2022/04/27 08:03:13;;;;;;;16.15;10.52;;;;;;;14.93;45.16;100455.03;5088145;28;20028;-69
2022/04/27 08:05:38;;;;;;;21.05;8.85;;;;;;;14.78;45.91;100459.41;5087678;28;20498;-69
2022/04/27 08:08:05;;;;;;;23.10;10.27;;;;;;;15.02;46.13;100463.31;5087067;28;20036;-67
2022/04/27 08:10:31;;;;;;;17.00;10.13;;;;;;;15.37;44.40;100459.59;5086830;28;20123;-66
2022/04/27 08:12:56;;;;;;;13.52;8.95;;;;;;;15.32;43.68;100457.19;5086735;28;20054;-70
2022/04/27 08:15:24;;;;;;;13.38;9.13;;;;;;;15.40;44.32;100459.41;5086250;28;20036;-68
2022/04/27 08:17:54;;;;;;;17.63;10.93;;;;;;;15.78;43.56;100461.63;5089655;28;20054;-68
2022/04/27 08:23:10;;;;;;;12.20;7.55;;;;;;;15.99;42.82;100470.94;5087870;28;20152;-70
2022/04/27 08:25:36;;;;;;;20.35;10.18;;;;;;;16.08;42.66;100470.41;5087006;28;20124;-69
2022/04/27 08:28:06;;;;;;;23.30;10.30;;;;;;;16.21;42.29;100475.81;5086326;28;20036;-69
2022/04/27 08:30:36;;;;;;;19.33;9.10;;;;;;;16.48;41.78;100475.91;5089088;28;20097;-69
2022/04/27 08:33:02;;;;;;;17.13;9.18;;;;;;;16.12;42.12;100480.84;5084771;28;20411;-70
2022/04/27 08:35:28;;;;;;;14.85;9.20;;;;;;;15.72;43.13;100470.81;5089409;28;20028;-68
2022/04/27 08:37:54;;;;;;;18.52;8.65;;;;;;;16.25;42.16;100469.38;5087270;28;20054;-69
2022/04/27 08:40:19;;;;;;;12.55;8.52;;;;;;;16.65;41.30;100468.66;5086499;28;20040;-69
2022/04/27 08:42:45;;;;;;;11.45;7.32;;;;;;;16.85;41.58;100470.09;5086457;28;20114;-70
2022/04/27 08:45:10;;;;;;;21.85;10.38;;;;;;;16.55;41.62;100475.53;5087712;28;20047;-69
2022/04/27 08:47:35;;;;;;;22.75;11.02;;;;;;;16.75;41.90;100469.78;5086590;28;20028;-69
2022/04/27 08:50:15;;;;;;;23.73;11.38;;;;;;;16.83;41.70;100472.84;5077109;28;20070;-69
2022/04/27 08:52:41;;;;;;;21.08;11.90;;;;;;;16.56;42.56;100472.75;5070735;28;20120;-68
2022/04/27 08:55:10;;;;;;;13.60;10.63;;;;;;;16.27;43.03;100480.78;5067638;28;20040;-68
2022/04/27 08:57:37;;;;;;;16.30;9.48;;;;;;;16.49;42.95;100476.75;5086584;28;20130;-70
2022/04/27 09:00:11;;;;;;;14.60;8.35;;;;;;;16.94;42.13;100480.16;5086094;28;20109;-70
2022/04/27 09:02:36;;;;;;;20.52;9.88;;;;;;;17.26;41.27;100477.19;5085341;28;20036;-69
2022/04/27 09:05:16;;;;;;;20.50;10.40;;;;;;;16.94;41.23;100483.66;5086001;28;20036;-69
2022/04/27 09:07:42;;;;;;;13.68;9.15;;;;;;;16.47;42.05;100481.34;5085402;28;20085;-69
2022/04/27 09:10:09;;;;;;;16.52;10.55;;;;;;;15.91;42.68;100480.34;5086466;28;20507;-70
2022/04/27 09:12:42;;;;;;;24.67;11.63;;;;;;;15.85;43.32;100484.22;5085530;28;20063;-70
2022/04/27 09:15:08;;;;;;;26.17;9.88;;;;;;;15.93;43.56;100486.44;5086723;28;20149;-68
2022/04/27 09:23:06;;;;;;;25.83;12.18;;;;;;;16.41;41.91;100493.19;5085316;28;20051;-69
2022/04/27 09:25:36;;;;;;;23.73;10.07;;;;;;;16.87;41.74;100492.16;5085837;28;20039;-69
2022/04/27 09:28:03;;;;;;;16.02;11.27;;;;;;;17.23;40.69;100488.91;5085705;28;20039;-68
2022/04/27 09:30:32;;;;;;;12.88;8.57;;;;;;;18.00;38.82;100481.94;5085930;28;20028;-69
2022/04/27 09:32:58;;;;;;;18.85;11.10;;;;;;;18.46;38.67;100488.56;5085086;28;20048;-68
2022/04/27 09:35:34;;;;;;;13.82;11.00;;;;;;;18.90;37.36;100487.19;5083900;28;20035;-67
2022/04/27 09:38:13;;;;;;;17.38;9.65;;;;;;;19.57;36.36;100494.72;5085918;27;20098;-68
2022/04/27 09:40:47;;;;;;;21.05;13.02;;;;;;;19.82;35.02;100487.53;5084563;28;20043;-69
2022/04/27 09:43:14;;;;;;;17.38;10.93;;;;;;;20.16;35.05;100485.78;5085372;28;20044;-70
2022/04/27 09:45:41;;;;;;;14.15;10.02;;;;;;;20.57;34.13;100501.28;5084458;28;20036;-69
2022/04/27 09:48:08;;;;;;;12.93;9.95;;;;;;;20.43;34.00;100496.16;5086620;28;20059;-70
2022/04/27 09:50:50;;;;;;;19.52;13.00;;;;;;;20.62;33.79;100494.69;5085903;28;20105;-69
2022/04/27 09:53:18;;;;;;;12.23;9.23;;;;;;;21.03;33.29;100488.69;5086125;28;20040;-68
2022/04/27 09:55:52;;;;;;;15.30;10.00;;;;;;;21.17;33.00;100496.44;5086838;28;20499;-69
2022/04/27 09:58:21;;;;;;;18.10;10.85;;;;;;;19.83;34.76;100482.06;5089058;28;20036;-69
2022/04/27 10:00:50;;;;;;;20.00;13.98;;;;;;;20.57;34.08;100493.22;5096575;28;20096;-70
2022/04/27 10:03:20;;;;;;;18.08;11.57;;;;;;;20.12;34.57;100495.00;5087829;28;20051;-67
2022/04/27 10:05:47;;;;;;;16.20;10.60;;;;;;;18.77;36.78;100495.25;5087668;28;20028;-69
2022/04/27 10:08:13;;;;;;;17.23;12.60;;;;;;;18.02;38.35;100496.06;5085457;28;20043;-68
2022/04/27 10:10:45;;;;;;;14.50;11.55;;;;;;;19.19;36.61;100498.44;5085032;28;20050;-70
2022/04/27 10:13:12;;;;;;;19.38;12.20;;;;;;;19.61;36.20;100493.50;5084810;28;20036;-69
2022/04/27 10:15:46;;;;;;;18.42;11.35;;;;;;;19.51;36.22;100501.38;5085331;28;20056;-69
2022/04/27 10:18:14;;;;;;;16.50;11.38;;;;;;;19.45;36.23;100493.81;5084379;28;20028;-69
2022/04/27 10:20:40;;;;;;;15.15;11.70;;;;;;;20.05;34.91;100491.97;5083295;28;20093;-69
2022/04/27 10:23:14;;;;;;;12.82;10.52;;;;;;;20.30;33.69;100487.34;5084107;28;20504;-69
2022/04/27 10:25:40;;;;;;;15.05;9.95;;;;;;;20.86;33.11;100478.47;5065410;28;20037;-68
2022/04/27 10:28:18;;;;;;;13.35;9.13;;;;;;;21.66;37.08;100475.44;5064626;28;20036;-70
2022/04/27 10:30:44;;;;;;;14.45;10.75;;;;;;;22.07;31.57;100477.22;5064332;28;20036;-52
2022/04/27 10:33:09;;;;;;;14.73;11.23;;;;;;;21.36;33.06;100473.44;5064707;28;20071;-50
2022/04/27 10:35:36;;;;;;;13.77;11.35;;;;;;;21.65;31.85;100471.03;5064626;28;20567;-51
2022/04/27 10:38:05;;;;;;;13.65;9.55;;;;;;;21.46;32.82;100468.19;5063592;28;20040;-55
2022/04/27 10:40:37;;;;;;;14.25;9.40;;;;;;;20.63;33.80;100464.28;5064347;28;20505;-56
2022/04/27 10:43:11;;;;;;;19.27;12.75;;;;;;;20.97;33.67;100467.75;5073043;28;20048;-58
2022/04/27 10:45:39;;;;;;;15.85;11.50;;;;;;;21.04;33.29;100473.44;5084655;28;20036;-56
2022/04/27 10:48:07;;;;;;;17.08;10.98;;;;;;;19.66;35.34;100483.31;5083876;28;20048;-55
2022/04/27 10:50:33;;;;;;;11.60;8.95;;;;;;;19.30;36.05;100473.59;5084409;28;20032;-51
2022/04/27 10:53:20;;;;;;;20.75;13.07;;;;;;;19.43;36.12;100476.19;5084353;28;20106;-52
2022/04/27 10:55:50;;;;;;;17.50;11.55;;;;;;;19.23;36.60;100472.34;5073090;28;20036;-56
2022/04/27 10:58:19;;;;;;;18.20;13.50;;;;;;;18.67;37.87;100479.00;5084389;28;20039;-56
2022/04/27 11:01:01;;;;;;;11.27;7.60;;;;;;;19.03;37.23;100463.97;5083858;28;20116;-55
2022/04/27 11:03:36;;;;;;;15.60;11.20;;;;;;;18.56;37.66;100476.25;5083577;28;20047;-70
2022/04/27 11:06:12;;;;;;;16.92;11.35;;;;;;;18.39;37.88;100474.78;5085793;28;20061;-68
2022/04/27 11:09:12;;;;;;;19.25;13.50;;;;;;;17.99;38.64;100471.38;5086986;28;20781;-68
2022/04/27 11:11:51;;;;;;;16.35;12.00;;;;;;;17.66;39.82;100475.38;5085428;28;20412;-71
2022/04/27 11:14:19;;;;;;;18.55;13.15;;;;;;;17.35;40.28;100457.91;5084435;28;20519;-70
2022/04/27 11:16:49;;;;;;;16.70;13.13;;;;;;;17.29;40.87;100477.84;5083515;28;20093;-69
2022/04/27 11:19:16;;;;;;;15.73;12.75;;;;;;;17.38;40.77;100468.38;5083948;28;20048;-70
2022/04/27 11:21:42;;;;;;;20.45;13.00;;;;;;;17.46;40.79;100467.88;5079552;28;20036;-70
2022/04/27 11:24:07;;;;;;;14.07;10.88;;;;;;;17.34;40.63;100475.72;5082647;28;20443;-70
2022/04/27 11:26:47;;;;;;;16.88;12.63;;;;;;;17.51;40.30;100463.94;5084168;28;20407;-68
2022/04/27 11:29:13;;;;;;;15.68;11.38;;;;;;;17.38;40.18;100466.56;5085139;28;20115;-70
2022/04/27 11:31:43;;;;;;;17.80;12.05;;;;;;;17.39;40.15;100464.75;5081413;28;20112;-71
2022/04/27 11:34:26;;;;;;;16.35;12.73;;;;;;;17.12;40.79;100467.44;5083956;28;20040;-69
2022/04/27 11:36:53;;;;;;;20.08;13.73;;;;;;;16.95;41.14;100476.53;5083692;28;20043;-67
2022/04/27 11:39:21;;;;;;;19.90;13.10;;;;;;;17.23;40.73;100466.72;5085210;28;20028;-66
2022/04/27 11:41:46;;;;;;;21.08;13.63;;;;;;;17.28;40.13;100468.16;5083642;28;20097;-69
2022/04/27 11:44:19;;;;;;;22.17;13.68;;;;;;;17.38;40.03;100468.38;5082704;28;20036;-68